Terminal Aerodrome Forecast
Issued by NWS

Home | Current Version | Previous Version | Text Only | Print | Product List | Glossary Off
Versions: 1 2 3 4 5 6 7 8 9 10 11 12 13

923
FTUS43 KOAX 222320
TAFCDR
TAF
KCDR 222320Z 2300/2324 35012KT P6SM BKN050
      TEMPO 2300/2303 VRB20G30KT 4SM TSRA BKN025CB
     FM230300 33008KT P6SM BKN080
     FM230800 27008KT P6SM BKN080
     FM231600 35014G25KT P6SM BKN080=

USA.gov is the U.S. government's official web portal to all federal, state and local government web resources and services.